^^
Datos históricos de la estación: Murcia-Puente Tocinos
Diario Informe para Junio 30, 2021 Unidades:  Métrico    Ingés   Ambas
Diario Semanal Mensual Anual
  Máxima: Mínima: Promedio:
Temperatura: 22.8 °C 11.6 °C 17.1 °C
Punto de rocio: 8 °C 0.7 °C 4.8 °C
Humedad: 66.4% 26.1% 46%
Velocidad viento: 25.6km/h 2.9km/h 10.8km/h
Racha viento: 52.1km/h - -
Viento- - SO
Presión: 1016.5 hPa 1007.8 hPa -
Precipitación: 0.0 mm    
 
 
Tabla de datos para Junio 30, 2021
Hora Temperatura Punto de rocio Presión Viento Velocidad viento Racha viento Humedad Intensidad lluvia(por hora) Nubes
00:04 18.7 °C 6.7 °C 1016.5 hPa SSO 8.4 km/h 16.7 km/h 45.7% 0.0 mm
00:09 19.2 °C 6.8 °C 1016.5 hPa SO 8.6 km/h 16.1 km/h 44.3% 0.0 mm
00:14 19.2 °C 6.9 °C 1016.5 hPa SO 8.7 km/h 14.5 km/h 44.9% 0.0 mm
00:19 18.9 °C 6.7 °C 1016.5 hPa SSO 7.7 km/h 13 km/h 45% 0.0 mm
00:24 18.8 °C 6.9 °C 1016.5 hPa Sur 7.6 km/h 12.9 km/h 46.1% 0.0 mm
00:29 18.1 °C 7.1 °C 1016.4 hPa Sur 6.7 km/h 11.1 km/h 48.6% 0.0 mm
00:34 17.5 °C 7.1 °C 1016.4 hPa Sur 6.5 km/h 11.3 km/h 50.4% 0.0 mm
00:39 17.3 °C 7 °C 1016.4 hPa SSE 6.9 km/h 11.3 km/h 51% 0.0 mm
00:44 17.2 °C 6.9 °C 1016.3 hPa Sur 6.9 km/h 9.7 km/h 51% 0.0 mm
00:49 17.2 °C 6.9 °C 1016.3 hPa SSE 6 km/h 10 km/h 51% 0.0 mm
00:54 17 °C 7 °C 1016.3 hPa SE 5.8 km/h 11.1 km/h 51.5% 0.0 mm
00:59 16.7 °C 6.9 °C 1016.2 hPa SE 6.8 km/h 11.3 km/h 52.5% 0.0 mm
01:04 16.2 °C 6.8 °C 1016.2 hPa SE 6.9 km/h 11.9 km/h 53.8% 0.0 mm
01:09 16.1 °C 6.8 °C 1016.2 hPa SE 8.1 km/h 11.3 km/h 54.2% 0.0 mm
01:14 16.2 °C 6.8 °C 1016.2 hPa SE 8.4 km/h 11.1 km/h 53.7% 0.0 mm
01:19 16.2 °C 6.9 °C 1016.2 hPa Sur 6.2 km/h 11.3 km/h 54% 0.0 mm
01:24 16 °C 6.9 °C 1016.2 hPa Sur 5.8 km/h 9.7 km/h 54.7% 0.0 mm
01:29 15.8 °C 7 °C 1016.0 hPa SSO 5.8 km/h 9.7 km/h 55.6% 0.0 mm
01:34 15.7 °C 6.9 °C 1016.0 hPa SO 5.8 km/h 8 km/h 56% 0.0 mm
01:39 15.6 °C 6.8 °C 1016.0 hPa SSO 4.8 km/h 9.3 km/h 56% 0.0 mm
01:44 15.5 °C 6.9 °C 1015.7 hPa SO 4.7 km/h 9.7 km/h 56.6% 0.0 mm
01:49 15.4 °C 6.9 °C 1015.7 hPa OSO 4.9 km/h 8.7 km/h 57% 0.0 mm
01:54 15.2 °C 6.8 °C 1015.7 hPa OSO 5 km/h 9.7 km/h 57.1% 0.0 mm
01:59 15.1 °C 6.9 °C 1015.7 hPa OSO 5 km/h 9.7 km/h 58% 0.0 mm
02:04 14.9 °C 6.8 °C 1015.7 hPa Sur 5 km/h 10 km/h 58.2% 0.0 mm
02:09 14.9 °C 6.9 °C 1015.7 hPa SE 5.7 km/h 10 km/h 59% 0.0 mm
02:14 14.8 °C 6.7 °C 1015.3 hPa SSE 5.8 km/h 11.9 km/h 58.2% 0.0 mm
02:19 14.8 °C 6.6 °C 1015.3 hPa Sur 6.7 km/h 11.9 km/h 58% 0.0 mm
02:24 14.7 °C 6.5 °C 1015.3 hPa SO 6.9 km/h 11.3 km/h 58% 0.0 mm
02:29 14.7 °C 6.5 °C 1015.3 hPa SSO 6.5 km/h 9.7 km/h 58% 0.0 mm
02:34 14.7 °C 6.4 °C 1015.3 hPa SO 6.5 km/h 11.9 km/h 57.5% 0.0 mm
02:39 15 °C 6.4 °C 1015.3 hPa SSE 6.5 km/h 11.3 km/h 56.4% 0.0 mm
02:44 15.2 °C 6.5 °C 1014.9 hPa SSE 6.5 km/h 13.7 km/h 56% 0.0 mm
02:49 15 °C 6.5 °C 1014.9 hPa SSE 8 km/h 14.5 km/h 56.9% 0.0 mm
02:54 14.7 °C 6.5 °C 1014.9 hPa SSO 8.4 km/h 11.3 km/h 58% 0.0 mm
02:59 14.6 °C 6.6 °C 1014.7 hPa OSO 7.2 km/h 11.1 km/h 58.6% 0.0 mm
03:04 14.4 °C 6.3 °C 1014.7 hPa OSO 6.9 km/h 11.3 km/h 58% 0.0 mm
03:09 14.4 °C 6.2 °C 1014.7 hPa SO 6.9 km/h 11.3 km/h 58% 0.0 mm
03:14 14.3 °C 6.2 °C 1014.5 hPa SO 6.9 km/h 11.3 km/h 58% 0.0 mm
03:19 14.3 °C 6.3 °C 1014.5 hPa SSE 6.5 km/h 14 km/h 58.7% 0.0 mm
03:24 14.4 °C 6.3 °C 1014.5 hPa Sur 6.5 km/h 14.8 km/h 58.2% 0.0 mm
03:29 14.4 °C 6.2 °C 1014.4 hPa Sur 8 km/h 14.5 km/h 58% 0.0 mm
03:34 14.4 °C 6.2 °C 1014.4 hPa SSO 8.4 km/h 11.3 km/h 57.9% 0.0 mm
03:39 14.6 °C 6.1 °C 1014.4 hPa SSO 6.8 km/h 11.1 km/h 57% 0.0 mm
03:44 14.6 °C 6.2 °C 1014.3 hPa Sur 6.4 km/h 11.9 km/h 57% 0.0 mm
03:49 14.4 °C 6 °C 1014.3 hPa Sur 7.4 km/h 13 km/h 57% 0.0 mm
03:54 14.3 °C 5.8 °C 1014.3 hPa SSE 7.6 km/h 13 km/h 56.7% 0.0 mm
03:59 14.3 °C 5.6 °C 1014.2 hPa SSE 8.5 km/h 15.6 km/h 56% 0.0 mm
04:04 14.2 °C 5.7 °C 1014.2 hPa Sur 8.7 km/h 16.1 km/h 56.9% 0.0 mm
04:09 14.1 °C 5.7 °C 1014.2 hPa Sur 7.8 km/h 12.2 km/h 57% 0.0 mm
04:14 13.9 °C 5.6 °C 1013.7 hPa SSO 7.6 km/h 13.7 km/h 57.4% 0.0 mm
04:19 13.9 °C 5.8 °C 1013.7 hPa Sur 7 km/h 14.5 km/h 58% 0.0 mm
04:24 13.8 °C 5.7 °C 1013.7 hPa SSO 6.9 km/h 12.9 km/h 58% 0.0 mm
04:29 13.8 °C 5.7 °C 1013.6 hPa SO 6.9 km/h 11.3 km/h 58% 0.0 mm
04:34 13.8 °C 5.7 °C 1013.6 hPa Sur 6.9 km/h 11.3 km/h 58% 0.0 mm
04:39 13.9 °C 5.7 °C 1013.6 hPa Sur 6 km/h 11.3 km/h 58% 0.0 mm
04:44 13.9 °C 5.7 °C 1013.1 hPa Oeste 5.8 km/h 8.4 km/h 57.7% 0.0 mm
04:49 13.8 °C 5.5 °C 1013.1 hPa OSO 4.2 km/h 10 km/h 57.4% 0.0 mm
04:54 13.7 °C 5.5 °C 1013.1 hPa SE 3.9 km/h 9.7 km/h 58% 0.0 mm
04:59 13.5 °C 5.4 °C 1012.6 hPa NO 3.9 km/h 8 km/h 58% 0.0 mm
05:04 13.4 °C 5.5 °C 1012.6 hPa NO 3.9 km/h 11.9 km/h 59.1% 0.0 mm
05:09 13.2 °C 5.7 °C 1012.6 hPa Sur 4.8 km/h 11.3 km/h 60.8% 0.0 mm
05:14 13 °C 5.8 °C 1012.2 hPa OSO 5 km/h 11.3 km/h 61.6% 0.0 mm
05:19 13 °C 5.8 °C 1012.2 hPa ONO 5 km/h 13 km/h 62% 0.0 mm
05:24 12.8 °C 5.5 °C 1012.2 hPa ONO 5 km/h 12.9 km/h 61.1% 0.0 mm
05:29 12.7 °C 5.5 °C 1012.0 hPa OSO 6.2 km/h 9.7 km/h 61.5% 0.0 mm
05:34 12.7 °C 5.6 °C 1012.0 hPa ESE 6.5 km/h 8.4 km/h 62% 0.0 mm
05:39 12.8 °C 5.5 °C 1012.0 hPa SSO 4.3 km/h 10 km/h 61.3% 0.0 mm
05:44 12.9 °C 5.5 °C 1012.0 hPa Oeste 3.9 km/h 11.1 km/h 60.6% 0.0 mm
05:49 13 °C 5.3 °C 1012.0 hPa OSO 6.3 km/h 11.3 km/h 59.9% 0.0 mm
05:54 13.1 °C 5.3 °C 1012.0 hPa Oeste 6.9 km/h 9.7 km/h 59% 0.0 mm
05:59 13.2 °C 5.3 °C 1011.9 hPa SO 6 km/h 8.4 km/h 59% 0.0 mm
06:04 13.2 °C 5.4 °C 1011.9 hPa Sur 5.8 km/h 11.1 km/h 59% 0.0 mm
06:09 13.2 °C 5.6 °C 1011.9 hPa SSE 5.8 km/h 15.6 km/h 59.9% 0.0 mm
06:14 12.8 °C 5.6 °C 1011.7 hPa SE 5.8 km/h 18.5 km/h 61.3% 0.0 mm
06:19 12.4 °C 5.6 °C 1011.7 hPa SE 9.2 km/h 19.3 km/h 63.3% 0.0 mm
06:24 11.9 °C 5.5 °C 1011.7 hPa SE 10 km/h 14.5 km/h 65% 0.0 mm
06:29 11.7 °C 5.5 °C 1011.3 hPa Sur 8.9 km/h 12.9 km/h 66% 0.0 mm
06:34 11.6 °C 5.4 °C 1011.3 hPa Sur 8.7 km/h 12.9 km/h 66% 0.0 mm
06:39 11.6 °C 5.5 °C 1011.3 hPa OSO 6.8 km/h 11.3 km/h 66.4% 0.0 mm
06:44 11.7 °C 5.5 °C 1011.1 hPa OSO 6.5 km/h 10 km/h 66% 0.0 mm
06:49 11.8 °C 5.6 °C 1011.1 hPa Oeste 5.9 km/h 11.1 km/h 66% 0.0 mm
06:54 11.8 °C 5.5 °C 1011.2 hPa ONO 5.8 km/h 11.3 km/h 65.5% 0.0 mm
06:59 11.8 °C 5.5 °C 1011.2 hPa Oeste 5.8 km/h 9.7 km/h 65.2% 0.0 mm
07:04 11.8 °C 5.5 °C 1011.2 hPa OSO 5.8 km/h 7.6 km/h 65.2% 0.0 mm
07:09 11.9 °C 5.6 °C 1011.3 hPa SSO 3.7 km/h 9.3 km/h 65.4% 0.0 mm
07:14 11.9 °C 5.5 °C 1011.3 hPa SSO 3.2 km/h 9.7 km/h 65% 0.0 mm
07:19 12 °C 5.6 °C 1011.3 hPa SSE 5.4 km/h 11.1 km/h 65% 0.0 mm
07:24 11.9 °C 5.6 °C 1011.6 hPa SE 5.8 km/h 17.2 km/h 65% 0.0 mm
07:29 11.8 °C 5.5 °C 1011.6 hPa SSE 8.8 km/h 20.4 km/h 65.4% 0.0 mm
07:34 11.6 °C 5.4 °C 1011.6 hPa SSE 9.5 km/h 20.9 km/h 66% 0.0 mm
07:39 11.7 °C 5.5 °C 1011.7 hPa SSE 12.4 km/h 22.5 km/h 66% 0.0 mm
07:44 11.8 °C 5.6 °C 1011.7 hPa SSE 13 km/h 22.5 km/h 65.5% 0.0 mm
07:49 12 °C 5.6 °C 1011.7 hPa SSE 12.4 km/h 18.5 km/h 65% 0.0 mm
07:54 12.1 °C 5.7 °C 1011.7 hPa SSE 12.2 km/h 19.3 km/h 65% 0.0 mm
07:59 12.2 °C 5.7 °C 1011.6 hPa Sur 10.6 km/h 15.6 km/h 64.9% 0.0 mm
08:04 12.3 °C 5.7 °C 1011.6 hPa Sur 10.3 km/h 16.7 km/h 64% 0.0 mm
08:09 12.7 °C 5.9 °C 1011.6 hPa SSO 10.3 km/h 18.5 km/h 63.2% 0.0 mm
08:14 13 °C 6 °C 1011.6 hPa SSO 10.3 km/h 19.3 km/h 62.2% 0.0 mm
08:19 13.2 °C 6.1 °C 1011.6 hPa SSO 10.3 km/h 15.6 km/h 62% 0.0 mm
08:24 13.2 °C 6.1 °C 1011.8 hPa SSO 10.3 km/h 16.1 km/h 62% 0.0 mm
08:29 13.2 °C 6.1 °C 1011.8 hPa SSO 9 km/h 14.5 km/h 62% 0.0 mm
08:34 13.2 °C 6.1 °C 1011.8 hPa Sur 8.7 km/h 11.9 km/h 62% 0.0 mm
08:39 13.3 °C 6.1 °C 1011.8 hPa SSE 7.2 km/h 13 km/h 62% 0.0 mm
08:44 13.3 °C 6.1 °C 1011.6 hPa Sur 6.9 km/h 15.6 km/h 61.5% 0.0 mm
08:49 13.4 °C 6 °C 1011.6 hPa Sur 9.4 km/h 16.1 km/h 61% 0.0 mm
08:54 13.6 °C 6.1 °C 1011.6 hPa SSO 10 km/h 14.5 km/h 60.6% 0.0 mm
08:59 13.7 °C 6 °C 1011.4 hPa SSO 8.9 km/h 14.5 km/h 60% 0.0 mm
09:04 13.8 °C 6.1 °C 1011.4 hPa SO 8.7 km/h 11.3 km/h 59.7% 0.0 mm
09:09 13.9 °C 6 °C 1011.6 hPa SSO 6.8 km/h 9.7 km/h 59% 0.0 mm
09:14 13.9 °C 6 °C 1011.6 hPa SSE 6.5 km/h 13.7 km/h 59% 0.0 mm
09:19 13.7 °C 6.1 °C 1011.6 hPa SSE 6.8 km/h 14.5 km/h 59.8% 0.0 mm
09:24 13.7 °C 6.1 °C 1011.9 hPa Sur 6.9 km/h 14.8 km/h 60% 0.0 mm
09:29 13.7 °C 6 °C 1011.9 hPa SSO 8.1 km/h 14.5 km/h 59.8% 0.0 mm
09:34 14.1 °C 6.2 °C 1011.9 hPa OSO 8.4 km/h 24.1 km/h 58.7% 0.0 mm
09:39 15.2 °C 6.4 °C 1011.9 hPa SO 8.4 km/h 24.1 km/h 55.6% 0.0 mm
09:44 15.8 °C 6.4 °C 1011.9 hPa Sur 8.4 km/h 11.1 km/h 53.3% 0.0 mm
09:49 15.7 °C 6.4 °C 1011.9 hPa SSE 7.7 km/h 13 km/h 54% 0.0 mm
09:54 15.1 °C 6.4 °C 1012.0 hPa SSE 7.6 km/h 13 km/h 55.9% 0.0 mm
09:59 15 °C 6.6 °C 1012.0 hPa SSO 8.2 km/h 19 km/h 57% 0.0 mm
10:04 15.6 °C 6.9 °C 1012.0 hPa SO 8.4 km/h 19.3 km/h 56% 0.0 mm
10:09 16.3 °C 7.1 °C 1012.0 hPa OSO 10.6 km/h 24.1 km/h 54.6% 0.0 mm
10:14 16.8 °C 7.3 °C 1011.8 hPa OSO 11.1 km/h 27.8 km/h 53.6% 0.0 mm
10:19 17.1 °C 7.4 °C 1011.8 hPa Oeste 14.1 km/h 35.2 km/h 52.7% 0.0 mm
10:24 17.3 °C 7.4 °C 1011.8 hPa ONO 14.8 km/h 39.6 km/h 52% 0.0 mm
10:29 17.5 °C 7.5 °C 1011.6 hPa ONO 18.2 km/h 40.2 km/h 52% 0.0 mm
10:34 17.6 °C 7.4 °C 1011.6 hPa Oeste 19 km/h 37 km/h 51.3% 0.0 mm
10:39 17.8 °C 7.5 °C 1011.7 hPa Oeste 20.5 km/h 33.8 km/h 51% 0.0 mm
10:44 17.9 °C 7.6 °C 1011.7 hPa Oeste 20.9 km/h 30.6 km/h 51% 0.0 mm
10:49 17.9 °C 7.6 °C 1011.7 hPa OSO 16.9 km/h 24.1 km/h 51% 0.0 mm
10:54 17.9 °C 7.5 °C 1011.9 hPa SO 16.1 km/h 24.1 km/h 50.6% 0.0 mm
10:59 18.1 °C 7.4 °C 1011.9 hPa SO 11.2 km/h 16.1 km/h 50% 0.0 mm
11:04 18.1 °C 7.5 °C 1011.9 hPa SSO 10.3 km/h 20.9 km/h 50% 0.0 mm
11:09 18.2 °C 7.6 °C 1011.9 hPa Sur 9.6 km/h 20.9 km/h 50% 0.0 mm
11:14 18 °C 7.5 °C 1011.9 hPa SE 9.5 km/h 14.5 km/h 50.3% 0.0 mm
11:19 17.9 °C 7.6 °C 1011.9 hPa SSE 8.6 km/h 14.5 km/h 51% 0.0 mm
11:24 17.8 °C 7.5 °C 1012.0 hPa SE 8.4 km/h 14.8 km/h 51% 0.0 mm
11:29 17.8 °C 7.5 °C 1012.0 hPa SSE 8.6 km/h 15.6 km/h 51% 0.0 mm
11:34 17.9 °C 7.6 °C 1012.0 hPa Sur 8.7 km/h 16.1 km/h 51% 0.0 mm
11:39 18 °C 7.7 °C 1012.0 hPa Sur 8.4 km/h 13 km/h 51% 0.0 mm
11:44 18 °C 7.7 °C 1011.9 hPa SSE 8.4 km/h 16.7 km/h 51% 0.0 mm
11:49 18.1 °C 7.8 °C 1011.9 hPa SSE 8.6 km/h 16.1 km/h 50.9% 0.0 mm
11:54 18.3 °C 7.6 °C 1012.0 hPa SE 8.7 km/h 14.5 km/h 50% 0.0 mm
11:59 18.4 °C 7.8 °C 1012.0 hPa ESE 7.2 km/h 11.9 km/h 50% 0.0 mm
12:04 18.4 °C 7.6 °C 1012.0 hPa SE 6.9 km/h 14 km/h 49.5% 0.0 mm
12:09 18.4 °C 7.5 °C 1012.0 hPa ESE 8.4 km/h 14.8 km/h 49.1% 0.0 mm
12:14 18.4 °C 7.7 °C 1011.6 hPa ESE 8.7 km/h 12.9 km/h 49.6% 0.0 mm
12:19 18.5 °C 7.5 °C 1011.6 hPa ESE 7.8 km/h 11.3 km/h 49% 0.0 mm
12:24 18.6 °C 7.7 °C 1011.6 hPa SSE 7.6 km/h 8.4 km/h 49% 0.0 mm
12:29 18.7 °C 7.6 °C 1011.4 hPa SE 5.2 km/h 12.2 km/h 48.3% 0.0 mm
12:34 18.8 °C 7.6 °C 1011.4 hPa ESE 4.7 km/h 13.7 km/h 48% 0.0 mm
12:39 18.9 °C 7.7 °C 1011.4 hPa SE 8.7 km/h 14.8 km/h 48% 0.0 mm
12:44 18.9 °C 7.7 °C 1011.1 hPa SE 9.5 km/h 14.8 km/h 48% 0.0 mm
12:49 19.1 °C 7.6 °C 1011.1 hPa SE 9.5 km/h 16.7 km/h 47.4% 0.0 mm
12:54 19.2 °C 7.6 °C 1011.1 hPa SE 9.5 km/h 17.2 km/h 46.9% 0.0 mm
12:59 19.3 °C 7.4 °C 1010.7 hPa SE 9.9 km/h 17.7 km/h 46.3% 0.0 mm
13:04 19.4 °C 7.5 °C 1010.7 hPa SE 10 km/h 11.9 km/h 46% 0.0 mm
13:09 19.6 °C 7.6 °C 1010.7 hPa Sur 7.5 km/h 11.3 km/h 46% 0.0 mm
13:14 19.7 °C 7.6 °C 1010.4 hPa SSO 6.9 km/h 9.7 km/h 45.4% 0.0 mm
13:19 19.9 °C 7.7 °C 1010.4 hPa Sur 4.4 km/h 8 km/h 45% 0.0 mm
13:24 20.2 °C 7.7 °C 1010.4 hPa SSE 3.9 km/h 8 km/h 44.3% 0.0 mm
13:29 20.3 °C 7.7 °C 1010.1 hPa ONO 3.3 km/h 6.4 km/h 44% 0.0 mm
13:34 20.5 °C 7.8 °C 1010.1 hPa NNO 3.2 km/h 7.6 km/h 44% 0.0 mm
13:39 20.5 °C 7.8 °C 1010.1 hPa ONO 3.2 km/h 8 km/h 44% 0.0 mm
13:44 20.6 °C 7.9 °C 1009.6 hPa ONO 3.2 km/h 6.4 km/h 44% 0.0 mm
13:49 20.8 °C 8 °C 1009.6 hPa Sur 3 km/h 7.6 km/h 43.6% 0.0 mm
13:54 21 °C 7.9 °C 1009.6 hPa SSE 2.9 km/h 8 km/h 43% 0.0 mm
13:59 21.2 °C 7.9 °C 1009.2 hPa Oeste 3.7 km/h 9.3 km/h 42.2% 0.0 mm
14:04 21.4 °C 7.9 °C 1009.2 hPa SO 3.9 km/h 11.1 km/h 42% 0.0 mm
14:09 21.5 °C 7.8 °C 1009.2 hPa SSO 5.4 km/h 15.6 km/h 41.3% 0.0 mm
14:14 21.4 °C 7.6 °C 1008.8 hPa OSO 5.8 km/h 16.1 km/h 41% 0.0 mm
14:19 21.5 °C 7.7 °C 1008.8 hPa SO 8.2 km/h 16.1 km/h 41.1% 0.0 mm
14:24 21.7 °C 7.6 °C 1008.8 hPa SO 8.7 km/h 16.7 km/h 40.2% 0.0 mm
14:29 21.9 °C 6.5 °C 1008.5 hPa OSO 7.8 km/h 27 km/h 36.9% 0.0 mm
14:34 22.2 °C 4.7 °C 1008.5 hPa OSO 7.6 km/h 40.7 km/h 32.1% 0.0 mm
14:39 22.4 °C 3 °C 1008.5 hPa OSO 16.3 km/h 40.2 km/h 28% 0.0 mm
14:44 22.7 °C 2.7 °C 1008.2 hPa OSO 18.3 km/h 30.6 km/h 27% 0.0 mm
14:49 22.8 °C 2.8 °C 1008.2 hPa Oeste 18.4 km/h 30.6 km/h 27% 0.0 mm
14:54 22.8 °C 3.1 °C 1008.2 hPa Oeste 18.4 km/h 30.6 km/h 27.7% 0.0 mm
14:59 22.7 °C 3.2 °C 1008.1 hPa Oeste 16.1 km/h 39.6 km/h 27.9% 0.0 mm
15:04 22.7 °C 3.2 °C 1008.1 hPa Oeste 15.6 km/h 40.2 km/h 28% 0.0 mm
15:09 22.7 °C 3.1 °C 1008.1 hPa OSO 16.3 km/h 28.2 km/h 27.8% 0.0 mm
15:14 22.7 °C 3.2 °C 1007.9 hPa OSO 16.4 km/h 33.5 km/h 28% 0.0 mm
15:19 22.8 °C 3.3 °C 1007.9 hPa OSO 14.4 km/h 33.8 km/h 28% 0.0 mm
15:24 22.7 °C 2.7 °C 1007.9 hPa OSO 14 km/h 37.8 km/h 26.8% 0.0 mm
15:29 22.7 °C 2.6 °C 1007.8 hPa Oeste 16.1 km/h 37 km/h 26.9% 0.0 mm
15:34 22.5 °C 2.7 °C 1007.8 hPa Oeste 16.4 km/h 33.8 km/h 27.2% 0.0 mm
15:39 22.3 °C 3 °C 1007.8 hPa Oeste 18.5 km/h 30.6 km/h 28% 0.0 mm
15:44 22.3 °C 2.9 °C 1007.8 hPa Oeste 19 km/h 27.8 km/h 28% 0.0 mm
15:49 22.2 °C 2.8 °C 1007.8 hPa Oeste 16.2 km/h 27.8 km/h 28% 0.0 mm
15:54 22.2 °C 2.5 °C 1007.9 hPa Oeste 15.6 km/h 31.5 km/h 27.4% 0.0 mm
15:59 22.1 °C 2.2 °C 1007.9 hPa Oeste 16 km/h 32.2 km/h 27% 0.0 mm
16:04 22 °C 2.1 °C 1007.9 hPa ONO 16.1 km/h 25.9 km/h 26.9% 0.0 mm
16:09 21.8 °C 2 °C 1007.9 hPa Oeste 14.4 km/h 25.7 km/h 27% 0.0 mm
16:14 21.8 °C 1.9 °C 1007.8 hPa Oeste 14 km/h 24.5 km/h 27% 0.0 mm
16:19 21.8 °C 1.9 °C 1007.8 hPa Oeste 13.2 km/h 34.3 km/h 27% 0.0 mm
16:24 21.7 °C 1.9 °C 1007.9 hPa Oeste 13 km/h 33.8 km/h 26.9% 0.0 mm
16:29 21.7 °C 1.7 °C 1007.9 hPa Oeste 17.4 km/h 39.6 km/h 26.7% 0.0 mm
16:34 21.6 °C 1.6 °C 1007.9 hPa Oeste 18.4 km/h 40.2 km/h 26.6% 0.0 mm
16:39 21.5 °C 1.7 °C 1008.2 hPa Oeste 19.6 km/h 31.5 km/h 27% 0.0 mm
16:44 21.4 °C 1.6 °C 1008.2 hPa Oeste 19.8 km/h 32.2 km/h 27% 0.0 mm
16:49 21.3 °C 1.9 °C 1008.2 hPa Oeste 17.6 km/h 34.3 km/h 27.6% 0.0 mm
16:54 21.2 °C 2 °C 1008.2 hPa ONO 17.2 km/h 38.9 km/h 28% 0.0 mm
16:59 21.2 °C 1.8 °C 1008.2 hPa Oeste 19.4 km/h 44.4 km/h 27.8% 0.0 mm
17:04 21.2 °C 1.5 °C 1008.2 hPa Oeste 19.8 km/h 45.1 km/h 27% 0.0 mm
17:09 21.2 °C 1.4 °C 1008.5 hPa Oeste 23.7 km/h 41.8 km/h 27% 0.0 mm
17:14 21.2 °C 1.8 °C 1008.5 hPa ONO 24.5 km/h 40.2 km/h 27.7% 0.0 mm
17:19 21.1 °C 1.7 °C 1008.5 hPa ONO 20 km/h 35.2 km/h 27.7% 0.0 mm
17:24 21.1 °C 1.3 °C 1008.7 hPa Oeste 19 km/h 35.4 km/h 27% 0.0 mm
17:29 21.1 °C 1.4 °C 1008.7 hPa Oeste 16.8 km/h 31.5 km/h 27% 0.0 mm
17:34 21.1 °C 1.2 °C 1008.7 hPa Oeste 16.4 km/h 44.9 km/h 26.8% 0.0 mm
17:39 21 °C 0.8 °C 1008.9 hPa Oeste 18.5 km/h 50.4 km/h 26.1% 0.0 mm
17:44 20.8 °C 0.7 °C 1008.9 hPa Oeste 19 km/h 49.9 km/h 26.3% 0.0 mm
17:49 20.7 °C 0.9 °C 1008.9 hPa Oeste 24.4 km/h 46.3 km/h 26.8% 0.0 mm
17:54 20.5 °C 0.8 °C 1008.9 hPa Oeste 25.6 km/h 46.7 km/h 26.9% 0.0 mm
17:59 20.4 °C 0.8 °C 1008.9 hPa Oeste 25.2 km/h 52.1 km/h 27% 0.0 mm
18:04 20.3 °C 1 °C 1008.9 hPa Oeste 25.1 km/h 51.5 km/h 27.6% 0.0 mm
18:09 20.2 °C 1.1 °C 1009.1 hPa OSO 23.7 km/h 46.8 km/h 28% 0.0 mm
18:14 20.1 °C 1 °C 1009.1 hPa OSO 23.3 km/h 46.7 km/h 28% 0.0 mm
18:19 19.9 °C 1.2 °C 1009.1 hPa Oeste 23.3 km/h 45.1 km/h 28.7% 0.0 mm
18:24 19.7 °C 1.2 °C 1009.2 hPa OSO 23.3 km/h 40.7 km/h 29% 0.0 mm
18:29 19.7 °C 0.8 °C 1009.2 hPa OSO 22.3 km/h 46.8 km/h 28.3% 0.0 mm
18:34 19.7 °C 0.8 °C 1009.2 hPa OSO 22.1 km/h 46.7 km/h 28.3% 0.0 mm
18:39 19.5 °C 1 °C 1009.6 hPa OSO 24.1 km/h 45.1 km/h 29% 0.0 mm
18:44 19.3 °C 0.8 °C 1009.6 hPa OSO 24.5 km/h 44.9 km/h 29% 0.0 mm
18:49 19.3 °C 0.8 °C 1009.6 hPa Oeste 22.4 km/h 45.1 km/h 29% 0.0 mm
18:54 19.2 °C 1 °C 1009.7 hPa OSO 22.1 km/h 43.5 km/h 29.7% 0.0 mm
18:59 19 °C 1 °C 1009.7 hPa OSO 16.7 km/h 28.2 km/h 30% 0.0 mm
19:04 18.9 °C 1.1 °C 1009.7 hPa OSO 15.6 km/h 27.4 km/h 30.4% 0.0 mm
19:09 18.8 °C 1.3 °C 1009.9 hPa OSO 12.6 km/h 20.1 km/h 31% 0.0 mm
19:14 18.7 °C 1.2 °C 1009.9 hPa OSO 11.9 km/h 29.8 km/h 31% 0.0 mm
19:19 18.7 °C 1.1 °C 1009.9 hPa OSO 13.3 km/h 34.6 km/h 30.8% 0.0 mm
19:24 18.7 °C 1 °C 1010.1 hPa Oeste 13.7 km/h 35.4 km/h 30.5% 0.0 mm
19:29 18.5 °C 1.1 °C 1010.1 hPa Oeste 15.7 km/h 35.2 km/h 31% 0.0 mm
19:34 18.4 °C 1 °C 1010.1 hPa OSO 16.1 km/h 35.4 km/h 31% 0.0 mm
19:39 18.4 °C 1.1 °C 1010.2 hPa Oeste 16.4 km/h 31.7 km/h 31.4% 0.0 mm
19:44 18.3 °C 1.3 °C 1010.2 hPa Oeste 16.4 km/h 37 km/h 32% 0.0 mm
19:49 18.3 °C 1.3 °C 1010.2 hPa Oeste 17.9 km/h 37 km/h 32% 0.0 mm
19:54 18.2 °C 1.4 °C 1010.4 hPa OSO 18.4 km/h 30.6 km/h 32.5% 0.0 mm
19:59 18.1 °C 1.6 °C 1010.4 hPa OSO 17.5 km/h 26.2 km/h 33% 0.0 mm
20:04 17.9 °C 1.5 °C 1010.4 hPa OSO 17.2 km/h 26.2 km/h 33.2% 0.0 mm
20:09 17.8 °C 1.7 °C 1010.5 hPa OSO 14.2 km/h 31.7 km/h 34% 0.0 mm
20:14 17.8 °C 1.7 °C 1010.5 hPa Oeste 13 km/h 32.2 km/h 34% 0.0 mm
20:19 17.7 °C 1.6 °C 1010.5 hPa Oeste 14.5 km/h 33.5 km/h 34% 0.0 mm
20:24 17.7 °C 1.6 °C 1010.5 hPa OSO 14.8 km/h 33.8 km/h 34% 0.0 mm
20:29 17.8 °C 1.7 °C 1010.5 hPa OSO 14.8 km/h 28.2 km/h 34% 0.0 mm
20:34 17.8 °C 1.7 °C 1010.5 hPa OSO 14.8 km/h 27.4 km/h 34% 0.0 mm
20:39 17.7 °C 1.6 °C 1010.5 hPa Oeste 14.1 km/h 24.1 km/h 34% 0.0 mm
20:44 17.7 °C 1.6 °C 1010.4 hPa Oeste 14 km/h 22.5 km/h 34% 0.0 mm
20:49 17.5 °C 1.5 °C 1010.4 hPa OSO 12.3 km/h 24.1 km/h 34% 0.0 mm
20:54 17.5 °C 1.4 °C 1010.4 hPa OSO 11.9 km/h 24.1 km/h 34% 0.0 mm
20:59 17.5 °C 1.6 °C 1010.4 hPa OSO 11.9 km/h 22.5 km/h 34.4% 0.0 mm
21:04 17.4 °C 1.8 °C 1010.4 hPa SO 11.9 km/h 22.2 km/h 35% 0.0 mm
21:09 17.4 °C 1.7 °C 1010.5 hPa SO 11.2 km/h 22.5 km/h 35% 0.0 mm
21:14 17.3 °C 1.7 °C 1010.5 hPa OSO 11.1 km/h 19.3 km/h 35% 0.0 mm
21:19 17.2 °C 1.7 °C 1010.5 hPa OSO 10.2 km/h 19.3 km/h 35.3% 0.0 mm
21:24 17 °C 1.8 °C 1010.7 hPa OSO 10 km/h 16.1 km/h 36% 0.0 mm
21:29 16.9 °C 1.7 °C 1010.7 hPa OSO 8.6 km/h 13 km/h 36% 0.0 mm
21:34 16.8 °C 1.6 °C 1010.7 hPa Oeste 8.4 km/h 11.1 km/h 36% 0.0 mm
21:39 16.8 °C 1.6 °C 1011.0 hPa Oeste 7.1 km/h 11.3 km/h 36% 0.0 mm
21:44 16.7 °C 1.8 °C 1011.0 hPa SO 6.9 km/h 9.7 km/h 36.6% 0.0 mm
21:49 16.6 °C 1.8 °C 1011.0 hPa SSE 5.1 km/h 8 km/h 37% 0.0 mm
21:54 16.5 °C 1.9 °C 1011.1 hPa ESE 4.7 km/h 8 km/h 37.3% 0.0 mm
21:59 16.3 °C 2 °C 1011.1 hPa ESE 4.9 km/h 8 km/h 38% 0.0 mm
22:04 16.2 °C 2.1 °C 1011.1 hPa ESE 5 km/h 5.8 km/h 38.8% 0.0 mm
22:09 15.9 °C 2 °C 1011.2 hPa SSE 4.1 km/h 7.6 km/h 39% 0.0 mm
22:14 15.8 °C 2.2 °C 1011.2 hPa SE 3.9 km/h 8.4 km/h 39.9% 0.0 mm
22:19 15.7 °C 2.1 °C 1011.2 hPa SSO 4.5 km/h 32.8 km/h 39.8% 0.0 mm
22:24 16.2 °C 1.9 °C 1011.2 hPa Oeste 4.7 km/h 33.8 km/h 38.2% 0.0 mm
22:29 16.6 °C 1.9 °C 1011.1 hPa OSO 12.2 km/h 35.2 km/h 37.1% 0.0 mm
22:34 16.9 °C 2 °C 1011.1 hPa SO 13.7 km/h 37.8 km/h 36.8% 0.0 mm
22:39 16.9 °C 2.1 °C 1011.1 hPa OSO 18 km/h 37 km/h 37% 0.0 mm
22:44 17 °C 2.2 °C 1011.0 hPa Oeste 19 km/h 44.4 km/h 37% 0.0 mm
22:49 17.2 °C 2.3 °C 1011.0 hPa OSO 19.7 km/h 45.1 km/h 37% 0.0 mm
22:54 17.2 °C 2.4 °C 1011.0 hPa OSO 19.8 km/h 38.9 km/h 37% 0.0 mm
22:59 17.2 °C 2.4 °C 1010.8 hPa Oeste 22.1 km/h 38.6 km/h 37% 0.0 mm
23:04 17.2 °C 2.3 °C 1010.8 hPa OSO 22.5 km/h 42.6 km/h 37% 0.0 mm
23:09 17.1 °C 2.3 °C 1010.9 hPa Oeste 20.5 km/h 41.8 km/h 37% 0.0 mm
23:14 17.1 °C 2.3 °C 1010.9 hPa OSO 20.1 km/h 38.6 km/h 37% 0.0 mm
Murcia-Puente Tocinos, Espa?a
Compliments of Weather Underground - 3 mb

La estación de MeteoMurcia.com, publica sus datos en los siguientes proyectos:

Weather Underground PWS IMURCIAP2 Meteoclimatic www.awekas.at

W3Counter
Web Analytics